createdAt,value
2018-12-02T00:00:45.171Z,0.8
2018-12-02T00:05:45.163Z,0.8
2018-12-02T00:10:45.173Z,0.8
2018-12-02T00:15:45.183Z,0.8
2018-12-02T00:20:45.187Z,0.8
2018-12-02T00:25:45.171Z,0.8
2018-12-02T00:30:45.204Z,0.8
2018-12-02T00:35:45.196Z,0.8
2018-12-02T00:40:45.190Z,0.8
2018-12-02T00:45:45.186Z,0.8
2018-12-02T00:50:45.207Z,0.8
2018-12-02T00:55:45.211Z,0.8
2018-12-02T01:00:45.181Z,0.8
2018-12-02T01:05:45.193Z,0.8
2018-12-02T01:10:45.398Z,0.8
2018-12-02T01:15:45.201Z,0.8
2018-12-02T01:20:45.216Z,0.8
2018-12-02T01:25:45.204Z,0.8
2018-12-02T01:30:45.214Z,0.8
2018-12-02T01:35:45.222Z,0.8
2018-12-02T01:40:45.219Z,0.8
2018-12-02T01:45:45.223Z,0.8
2018-12-02T01:50:45.229Z,0.8
2018-12-02T01:55:45.223Z,0.7
2018-12-02T02:00:45.434Z,0.7
2018-12-02T02:05:45.235Z,0.7
2018-12-02T02:10:45.228Z,0.7
2018-12-02T02:15:45.257Z,0.6
2018-12-02T02:20:45.386Z,0.6
2018-12-02T02:25:45.185Z,0.6
2018-12-02T02:30:46.452Z,0.6
2018-12-02T02:35:45.225Z,0.6
2018-12-02T02:40:45.389Z,0.6
2018-12-02T02:45:45.246Z,0.6
2018-12-02T02:50:45.252Z,0.5
2018-12-02T02:55:45.240Z,0.6
2018-12-02T03:00:45.255Z,0.5
2018-12-02T03:05:45.263Z,0.5
2018-12-02T03:10:45.266Z,0.5
2018-12-02T03:15:45.247Z,0.5
2018-12-02T03:20:45.263Z,0.4
2018-12-02T03:25:45.263Z,0.4
2018-12-02T03:30:45.223Z,0.4
2018-12-02T03:35:45.279Z,0.4
2018-12-02T03:40:45.268Z,0.3
2018-12-02T03:45:45.287Z,0.3
2018-12-02T03:50:45.227Z,0.3
2018-12-02T03:55:45.308Z,0.3
2018-12-02T04:00:45.285Z,0.3
2018-12-02T04:05:45.238Z,0.3
2018-12-02T04:10:45.298Z,0.2
2018-12-02T04:15:45.290Z,0.2
2018-12-02T04:20:45.291Z,0.2
2018-12-02T04:25:45.289Z,0.2
2018-12-02T04:30:45.297Z,0.2
2018-12-02T04:35:45.311Z,0.2
2018-12-02T04:40:45.294Z,0.2
2018-12-02T04:45:45.301Z,0.1
2018-12-02T04:50:45.314Z,0.1
2018-12-02T04:55:45.312Z,0.1
2018-12-02T05:00:45.316Z,0.1
2018-12-02T05:05:45.322Z,0.1
2018-12-02T05:10:45.316Z,0
2018-12-02T05:15:45.315Z,0
2018-12-02T05:20:45.346Z,0
2018-12-02T05:25:45.334Z,0
2018-12-02T05:30:45.512Z,0
2018-12-02T05:35:45.351Z,-0.1
2018-12-02T05:40:45.343Z,0
2018-12-02T05:45:45.446Z,0
2018-12-02T05:50:45.576Z,-0.1
2018-12-02T05:55:45.350Z,0
2018-12-02T06:00:45.344Z,0
2018-12-02T06:05:45.354Z,0
2018-12-02T06:10:45.363Z,-0.1
2018-12-02T06:15:45.358Z,-0.1
2018-12-02T06:20:45.355Z,-0.1
2018-12-02T06:25:46.520Z,-0.2
2018-12-02T06:30:45.370Z,-0.2
2018-12-02T06:35:45.356Z,-0.1
2018-12-02T06:40:45.368Z,-0.2
2018-12-02T06:45:45.366Z,-0.2
2018-12-02T06:50:45.379Z,-0.2
2018-12-02T06:55:45.396Z,-0.2
2018-12-02T07:00:45.422Z,-0.2
2018-12-02T07:05:45.330Z,-0.1
2018-12-02T07:10:45.377Z,-0.1
2018-12-02T07:15:45.368Z,-0.1
2018-12-02T07:20:45.400Z,-0.1
2018-12-02T07:25:45.401Z,-0.1
2018-12-02T07:30:45.518Z,-0.1
2018-12-02T07:35:45.397Z,-0.2
2018-12-02T07:40:45.382Z,-0.2
2018-12-02T07:45:45.415Z,-0.2
2018-12-02T07:50:45.363Z,-0.2
2018-12-02T07:55:45.375Z,-0.2
2018-12-02T08:00:45.391Z,-0.1
2018-12-02T08:05:45.403Z,0
2018-12-02T08:10:45.409Z,0
2018-12-02T08:15:45.411Z,0
2018-12-02T08:20:45.403Z,0
2018-12-02T08:25:45.431Z,0
2018-12-02T08:30:45.426Z,-0.1
2018-12-02T08:35:45.427Z,-0.1
2018-12-02T08:40:45.410Z,-0.1
2018-12-02T08:45:45.424Z,-0.2
2018-12-02T08:50:45.434Z,-0.1
2018-12-02T08:55:45.450Z,0
2018-12-02T09:00:45.429Z,0
2018-12-02T09:05:45.416Z,0
2018-12-02T09:10:46.379Z,0
2018-12-02T09:15:45.454Z,0
2018-12-02T09:20:45.412Z,0
2018-12-02T09:25:45.461Z,0
2018-12-02T09:30:45.536Z,0
2018-12-02T09:35:45.471Z,0
2018-12-02T09:40:45.464Z,0
2018-12-02T09:45:45.491Z,-0.1
2018-12-02T09:50:45.418Z,0
2018-12-02T09:55:45.494Z,0
2018-12-02T10:00:45.466Z,0
2018-12-02T10:05:45.509Z,0.1
2018-12-02T10:10:45.516Z,0.1
2018-12-02T10:15:45.502Z,0
2018-12-02T10:20:45.504Z,0
2018-12-02T10:25:45.526Z,0
2018-12-02T10:30:45.475Z,0
2018-12-02T10:35:45.483Z,0
2018-12-02T10:40:45.498Z,0
2018-12-02T10:45:45.495Z,-0.1
2018-12-02T10:50:45.509Z,-0.1
2018-12-02T10:55:45.502Z,0
2018-12-02T11:00:45.847Z,0
2018-12-02T11:05:45.837Z,0
2018-12-02T11:10:45.860Z,0
2018-12-02T11:15:45.837Z,0
2018-12-02T11:20:45.835Z,0
2018-12-02T11:25:45.872Z,0.1
2018-12-02T11:30:46.415Z,0
2018-12-02T11:35:45.865Z,0
2018-12-02T11:40:45.849Z,0.3
2018-12-02T11:45:45.907Z,0.1
2018-12-02T11:50:45.836Z,0.1
2018-12-02T11:55:45.866Z,0.2
2018-12-02T12:00:45.862Z,0.2
2018-12-02T12:05:45.897Z,0.2
2018-12-02T12:10:45.904Z,0.3
2018-12-02T12:15:45.909Z,0.3
2018-12-02T12:20:45.871Z,0.4
2018-12-02T12:25:45.945Z,0.4
2018-12-02T12:30:45.902Z,0.4
2018-12-02T12:35:45.900Z,0.4
2018-12-02T12:40:45.880Z,0.4
2018-12-02T12:45:45.901Z,0.4
2018-12-02T12:50:45.902Z,0.4
2018-12-02T12:55:50.761Z,0.5
2018-12-02T13:00:46.063Z,0.5
2018-12-02T13:05:45.858Z,0.5
2018-12-02T13:10:46.114Z,0.6
2018-12-02T13:15:46.062Z,0.6
2018-12-02T13:20:45.914Z,0.7
2018-12-02T13:25:45.923Z,0.7
2018-12-02T13:30:45.935Z,0.7
2018-12-02T13:35:46.078Z,0.7
2018-12-02T13:40:45.882Z,0.6
2018-12-02T13:45:45.881Z,0.6
2018-12-02T13:50:45.926Z,0.5
2018-12-02T13:55:45.917Z,0.5
2018-12-02T14:00:45.948Z,0.5
2018-12-02T14:05:45.955Z,0.6
2018-12-02T14:10:45.929Z,0.6
2018-12-02T14:15:45.939Z,0.7
2018-12-02T14:20:45.955Z,0.7
2018-12-02T14:25:45.944Z,0.7
2018-12-02T14:30:45.987Z,0.6
2018-12-02T14:35:45.959Z,0.7
2018-12-02T14:40:45.947Z,0.7
2018-12-02T14:45:46.072Z,0.7
2018-12-02T14:50:45.954Z,0.7
2018-12-02T14:55:45.978Z,0.7
2018-12-02T15:00:45.966Z,0.6
2018-12-02T15:05:45.981Z,0.6
2018-12-02T15:10:46.369Z,0.6
2018-12-02T15:15:45.991Z,0.6
2018-12-02T15:20:45.971Z,0.5
2018-12-02T15:25:45.986Z,0.5
2018-12-02T15:30:45.995Z,0.5
2018-12-02T15:35:45.988Z,0.5
2018-12-02T15:40:45.981Z,0.6
2018-12-02T15:45:45.984Z,0.5
2018-12-02T15:50:50.294Z,0.5
2018-12-02T15:55:46.005Z,0.4
2018-12-02T16:00:46.007Z,0.4
2018-12-02T16:05:46.054Z,0.3
2018-12-02T16:10:46.006Z,0.3
2018-12-02T16:15:46.008Z,0.3
2018-12-02T16:20:46.928Z,0.3
2018-12-02T16:25:46.292Z,0.3
2018-12-02T16:30:46.074Z,0.3
2018-12-02T16:35:46.513Z,0.3
2018-12-02T16:40:45.989Z,0.4
2018-12-02T16:45:46.031Z,0.4
2018-12-02T16:50:46.027Z,0.4
2018-12-02T16:55:46.025Z,0.4
2018-12-02T17:00:46.019Z,0.4
2018-12-02T17:05:46.109Z,0.4
2018-12-02T17:10:50.332Z,0.4
2018-12-02T17:15:46.280Z,0.5
2018-12-02T17:20:46.054Z,0.5
2018-12-02T17:25:46.083Z,0.5
2018-12-02T17:30:46.086Z,0.5
2018-12-02T17:35:46.068Z,0.6
2018-12-02T17:40:46.129Z,0.6
2018-12-02T17:45:46.341Z,0.6
2018-12-02T17:50:46.172Z,0.6
2018-12-02T17:55:46.180Z,0.6
2018-12-02T18:00:46.149Z,0.6
2018-12-02T18:05:46.723Z,0.5
2018-12-02T18:10:46.465Z,0.5
2018-12-02T18:15:49.055Z,0.6
2018-12-02T18:20:46.093Z,0.6
2018-12-02T18:25:46.480Z,0.6
2018-12-02T18:30:46.366Z,0.6
2018-12-02T18:35:46.083Z,0.6
2018-12-02T18:40:46.131Z,0.6
2018-12-02T18:45:46.096Z,0.6
2018-12-02T18:50:46.134Z,0.6
2018-12-02T18:55:46.084Z,0.6
2018-12-02T19:00:46.105Z,0.6
2018-12-02T19:05:46.320Z,0.6
2018-12-02T19:10:46.117Z,0.6
2018-12-02T19:15:46.096Z,0.6
2018-12-02T19:20:46.146Z,0.6
2018-12-02T19:25:46.100Z,0.7
2018-12-02T19:30:46.141Z,0.6
2018-12-02T19:35:46.123Z,0.7
2018-12-02T19:40:46.315Z,0.7
2018-12-02T19:45:46.137Z,0.7
2018-12-02T19:50:46.128Z,0.7
2018-12-02T19:55:46.157Z,0.7
2018-12-02T20:00:46.824Z,0.7
2018-12-02T20:05:46.135Z,0.7
2018-12-02T20:10:46.206Z,0.7
2018-12-02T20:15:46.134Z,0.7
2018-12-02T20:20:47.443Z,0.7
2018-12-02T20:25:46.234Z,0.7
2018-12-02T20:30:46.288Z,0.6
2018-12-02T20:35:46.333Z,0.7
2018-12-02T20:40:46.159Z,0.7
2018-12-02T20:45:46.162Z,0.7
2018-12-02T20:50:46.144Z,0.7
2018-12-02T20:55:46.152Z,0.7
2018-12-02T21:00:46.803Z,0.7
2018-12-02T21:05:46.167Z,0.7
2018-12-02T21:10:46.147Z,0.8
2018-12-02T21:15:46.177Z,0.8
2018-12-02T21:20:46.109Z,0.8
2018-12-02T21:25:46.197Z,0.8
2018-12-02T21:30:46.162Z,0.8
2018-12-02T21:35:46.155Z,0.8
2018-12-02T21:40:46.175Z,0.9
2018-12-02T21:45:46.167Z,0.9
2018-12-02T21:50:46.178Z,0.9
2018-12-02T21:55:46.174Z,0.9
2018-12-02T22:00:46.408Z,0.9
2018-12-02T22:05:46.168Z,0.9
2018-12-02T22:10:46.188Z,0.9
2018-12-02T22:15:46.186Z,0.9
2018-12-02T22:20:46.233Z,0.9
2018-12-02T22:25:46.554Z,1
2018-12-02T22:30:46.274Z,1
2018-12-02T22:35:46.253Z,1
2018-12-02T22:40:46.331Z,1
2018-12-02T22:45:46.224Z,1
2018-12-02T22:50:46.422Z,1
2018-12-02T22:55:46.287Z,1
2018-12-02T23:00:46.360Z,1
2018-12-02T23:05:46.202Z,1.1
2018-12-02T23:10:46.333Z,1.1
2018-12-02T23:15:46.353Z,1.1
2018-12-02T23:20:46.213Z,1.1
2018-12-02T23:25:46.322Z,1.1
2018-12-02T23:30:46.352Z,1.2
2018-12-02T23:35:46.387Z,1.2
2018-12-02T23:40:46.243Z,1.1
2018-12-02T23:45:46.354Z,1.1
2018-12-02T23:50:47.423Z,1.1
2018-12-02T23:55:46.496Z,1.2
